createdAt,value
2022-11-25T00:09:32.208Z,6.90
2022-11-25T00:19:34.524Z,8.70
2022-11-25T00:29:36.998Z,7.23
2022-11-25T00:39:39.583Z,7.03
2022-11-25T00:49:46.577Z,6.63
2022-11-25T00:59:49.554Z,5.50
2022-11-25T01:09:51.912Z,3.60
2022-11-25T01:19:54.306Z,4.07
2022-11-25T01:29:56.691Z,4.10
2022-11-25T01:39:59.196Z,3.33
2022-11-25T01:50:06.399Z,5.07
2022-11-25T02:00:10.876Z,5.50
2022-11-25T02:10:22.057Z,4.20
2022-11-25T02:20:25.454Z,4.93
2022-11-25T02:30:27.884Z,5.27
2022-11-25T02:40:30.856Z,6.37
2022-11-25T02:50:33.169Z,4.50
2022-11-25T03:00:35.750Z,4.47
2022-11-25T03:10:39.020Z,3.47
2022-11-25T03:20:41.723Z,5.73
2022-11-25T03:30:44.506Z,8.43
2022-11-25T03:40:48.298Z,4.73
2022-11-25T03:50:50.865Z,3.37
2022-11-25T04:00:53.475Z,5.27
2022-11-25T04:10:56.201Z,4.70
2022-11-25T04:20:58.745Z,5.53
2022-11-25T04:31:01.195Z,5.97
2022-11-25T04:41:03.867Z,3.53
2022-11-25T04:51:06.365Z,5.17
2022-11-25T05:01:08.898Z,4.20
2022-11-25T05:11:11.335Z,5.50
2022-11-25T05:21:13.899Z,5.43
2022-11-25T05:31:16.584Z,4.67
2022-11-25T05:41:19.112Z,4.27
2022-11-25T05:51:22.360Z,4.77
2022-11-25T06:01:25.135Z,3.93
2022-11-25T06:11:28.020Z,3.80
2022-11-25T06:21:30.392Z,3.33
2022-11-25T06:31:32.996Z,4.07
2022-11-25T06:41:35.681Z,4.27
2022-11-25T06:51:38.355Z,6.43
2022-11-25T07:01:41.039Z,3.73
2022-11-25T07:11:43.781Z,5.37
2022-11-25T07:21:47.220Z,5.00
2022-11-25T07:31:49.877Z,4.60
2022-11-25T07:41:54.277Z,4.50
2022-11-25T07:52:00.289Z,4.93
2022-11-25T08:02:03.254Z,6.43
2022-11-25T08:12:06.165Z,7.13
2022-11-25T08:22:09.199Z,6.90
2022-11-25T08:32:12.163Z,6.27
2022-11-25T08:42:14.853Z,7.90
2022-11-25T08:52:17.632Z,5.97
2022-11-25T09:02:21.329Z,6.53
2022-11-25T09:12:25.199Z,4.07
2022-11-25T09:22:28.095Z,8.57
2022-11-25T09:32:30.975Z,8.03
2022-11-25T09:43:10.919Z,5.80
2022-11-25T09:53:55.194Z,5.47
2022-11-25T10:04:14.595Z,5.23
2022-11-25T10:14:42.567Z,7.67
2022-11-25T10:24:45.709Z,9.63
2022-11-25T10:34:59.237Z,11.80
2022-11-25T10:45:03.040Z,9.60
2022-11-25T10:55:15.374Z,9.37
2022-11-25T11:05:30.473Z,11.03
2022-11-25T11:15:50.307Z,8.05
2022-11-25T11:26:06.352Z,10.27
2022-11-25T11:36:45.634Z,8.07
2022-11-25T11:47:01.355Z,5.83
2022-11-25T11:57:38.811Z,5.13
2022-11-25T12:08:08.273Z,5.50
2022-11-25T12:18:33.776Z,6.77
2022-11-25T12:28:44.747Z,8.23
2022-11-25T12:39:03.070Z,4.80
2022-11-25T12:49:14.818Z,4.57
2022-11-25T12:59:42.673Z,5.20
2022-11-25T13:10:03.573Z,5.03
2022-11-25T13:20:27.966Z,3.57
2022-11-25T13:30:33.665Z,5.70
2022-11-25T13:40:39.920Z,8.00
2022-11-25T13:51:09.628Z,6.90
2022-11-25T14:01:29.787Z,4.60
2022-11-25T14:11:49.608Z,2.80
2022-11-25T14:22:13.195Z,2.87
2022-11-25T14:32:40.279Z,6.53
2022-11-25T14:42:46.935Z,4.00
2022-11-25T14:52:51.000Z,3.03
2022-11-25T15:02:59.581Z,4.00
2022-11-25T15:13:13.809Z,2.37
2022-11-25T15:23:24.029Z,2.93
2022-11-25T15:33:29.683Z,1.60
2022-11-25T15:43:45.894Z,2.27
2022-11-25T15:53:54.957Z,3.17
2022-11-25T16:04:30.095Z,3.40
2022-11-25T16:14:36.657Z,3.23
2022-11-25T16:24:41.545Z,5.20
2022-11-25T16:34:46.211Z,2.93
2022-11-25T16:44:52.028Z,5.33
2022-11-25T16:54:55.198Z,3.67
2022-11-25T17:05:00.344Z,5.70
2022-11-25T17:15:06.198Z,3.67
2022-11-25T17:25:12.929Z,3.83
2022-11-25T17:35:21.104Z,3.13
2022-11-25T17:45:24.494Z,3.57
2022-11-25T17:55:27.720Z,5.60
2022-11-25T18:05:30.255Z,6.77
2022-11-25T18:15:35.262Z,9.80
2022-11-25T18:25:40.616Z,4.10
2022-11-25T18:35:44.459Z,3.23
2022-11-25T18:45:47.336Z,5.00
2022-11-25T18:55:50.830Z,4.57
2022-11-25T19:05:59.772Z,5.07
2022-11-25T19:16:14.282Z,3.57
2022-11-25T19:26:22.341Z,5.90
2022-11-25T19:36:28.953Z,3.97
2022-11-25T19:46:52.510Z,3.00
2022-11-25T19:56:56.643Z,8.50
2022-11-25T20:06:59.445Z,6.50
2022-11-25T20:17:02.237Z,6.37
2022-11-25T20:27:05.131Z,4.63
2022-11-25T20:37:09.690Z,6.80
2022-11-25T20:47:15.419Z,8.48
2022-11-25T20:57:18.310Z,11.23
2022-11-25T21:07:21.118Z,4.47
2022-11-25T21:17:24.204Z,3.63
2022-11-25T21:27:26.918Z,5.47
2022-11-25T21:37:33.418Z,7.87
2022-11-25T21:47:36.152Z,7.13
2022-11-25T21:57:39.517Z,9.33
2022-11-25T22:07:42.581Z,13.83
2022-11-25T22:17:46.039Z,19.17
2022-11-25T22:27:49.584Z,11.27
2022-11-25T22:37:55.192Z,7.93
2022-11-25T22:47:58.793Z,4.77
2022-11-25T22:58:02.352Z,4.80
2022-11-25T23:08:22.283Z,4.97
2022-11-25T23:18:40.038Z,7.93
2022-11-25T23:28:42.615Z,8.77
2022-11-25T23:38:49.616Z,12.37
2022-11-25T23:49:01.635Z,11.37
2022-11-25T23:59:04.174Z,9.07
